sensor_id;sensor_type;location;lat;lon;timestamp;P1;durP1;ratioP1;P2;durP2;ratioP2
40669;SDS011;26355;45.528;9.234;2022-12-11T00:00:53;29.77;;;15.45;;
40669;SDS011;26355;45.528;9.234;2022-12-11T00:03:18;29.15;;;15.50;;
40669;SDS011;26355;45.528;9.234;2022-12-11T00:05:44;31.02;;;15.25;;
40669;SDS011;26355;45.528;9.234;2022-12-11T00:08:15;30.38;;;16.27;;
40669;SDS011;26355;45.528;9.234;2022-12-11T00:10:46;32.80;;;15.45;;
40669;SDS011;26355;45.528;9.234;2022-12-11T00:13:13;30.58;;;15.27;;
40669;SDS011;26355;45.528;9.234;2022-12-11T00:15:39;30.27;;;14.63;;
40669;SDS011;26355;45.528;9.234;2022-12-11T00:18:04;31.27;;;15.63;;
40669;SDS011;26355;45.528;9.234;2022-12-11T00:20:30;28.70;;;15.45;;
40669;SDS011;26355;45.528;9.234;2022-12-11T00:22:55;31.95;;;16.73;;
40669;SDS011;26355;45.528;9.234;2022-12-11T00:25:21;32.75;;;16.48;;
40669;SDS011;26355;45.528;9.234;2022-12-11T00:27:47;32.50;;;15.32;;
40669;SDS011;26355;45.528;9.234;2022-12-11T00:30:13;32.47;;;15.57;;
40669;SDS011;26355;45.528;9.234;2022-12-11T00:32:39;33.53;;;17.05;;
40669;SDS011;26355;45.528;9.234;2022-12-11T00:35:04;39.75;;;17.35;;
40669;SDS011;26355;45.528;9.234;2022-12-11T00:37:30;34.38;;;16.52;;
40669;SDS011;26355;45.528;9.234;2022-12-11T00:39:56;31.35;;;14.88;;
40669;SDS011;26355;45.528;9.234;2022-12-11T00:42:21;38.50;;;15.32;;
40669;SDS011;26355;45.528;9.234;2022-12-11T00:44:47;31.20;;;14.07;;
40669;SDS011;26355;45.528;9.234;2022-12-11T00:47:12;35.33;;;14.23;;
40669;SDS011;26355;45.528;9.234;2022-12-11T00:49:38;34.30;;;13.80;;
40669;SDS011;26355;45.528;9.234;2022-12-11T00:52:04;41.92;;;12.82;;
40669;SDS011;26355;45.528;9.234;2022-12-11T00:54:30;38.85;;;15.32;;
40669;SDS011;26355;45.528;9.234;2022-12-11T00:56:56;60.05;;;15.65;;
40669;SDS011;26355;45.528;9.234;2022-12-11T00:59:21;67.20;;;18.05;;
40669;SDS011;26355;45.528;9.234;2022-12-11T01:01:47;50.95;;;14.30;;
40669;SDS011;26355;45.528;9.234;2022-12-11T01:04:12;34.80;;;14.48;;
40669;SDS011;26355;45.528;9.234;2022-12-11T01:06:38;50.50;;;16.25;;
40669;SDS011;26355;45.528;9.234;2022-12-11T01:09:04;86.50;;;16.25;;
40669;SDS011;26355;45.528;9.234;2022-12-11T01:11:48;79.03;;;17.75;;
40669;SDS011;26355;45.528;9.234;2022-12-11T01:14:13;65.82;;;17.27;;
40669;SDS011;26355;45.528;9.234;2022-12-11T01:16:39;60.00;;;17.80;;
40669;SDS011;26355;45.528;9.234;2022-12-11T01:19:05;41.55;;;15.18;;
40669;SDS011;26355;45.528;9.234;2022-12-11T01:21:30;62.65;;;15.88;;
40669;SDS011;26355;45.528;9.234;2022-12-11T01:23:56;51.50;;;18.25;;
40669;SDS011;26355;45.528;9.234;2022-12-11T01:26:22;50.15;;;17.35;;
40669;SDS011;26355;45.528;9.234;2022-12-11T01:28:50;64.10;;;16.88;;
40669;SDS011;26355;45.528;9.234;2022-12-11T01:31:17;68.07;;;17.05;;
40669;SDS011;26355;45.528;9.234;2022-12-11T01:33:46;46.55;;;15.55;;
40669;SDS011;26355;45.528;9.234;2022-12-11T01:36:17;45.65;;;15.43;;
40669;SDS011;26355;45.528;9.234;2022-12-11T01:38:43;58.72;;;18.45;;
40669;SDS011;26355;45.528;9.234;2022-12-11T01:41:10;46.37;;;14.90;;
40669;SDS011;26355;45.528;9.234;2022-12-11T01:46:39;45.65;;;16.83;;
40669;SDS011;26355;45.528;9.234;2022-12-11T01:49:10;52.28;;;17.50;;
40669;SDS011;26355;45.528;9.234;2022-12-11T01:51:57;45.25;;;16.45;;
40669;SDS011;26355;45.528;9.234;2022-12-11T01:54:27;43.70;;;16.58;;
40669;SDS011;26355;45.528;9.234;2022-12-11T01:56:59;41.15;;;16.65;;
40669;SDS011;26355;45.528;9.234;2022-12-11T01:59:28;50.80;;;16.33;;
40669;SDS011;26355;45.528;9.234;2022-12-11T02:04:29;37.40;;;16.58;;
40669;SDS011;26355;45.528;9.234;2022-12-11T02:06:56;47.08;;;16.58;;
40669;SDS011;26355;45.528;9.234;2022-12-11T02:09:23;38.10;;;17.73;;
40669;SDS011;26355;45.528;9.234;2022-12-11T02:12:37;47.92;;;17.17;;
40669;SDS011;26355;45.528;9.234;2022-12-11T02:15:16;81.65;;;19.13;;
40669;SDS011;26355;45.528;9.234;2022-12-11T02:28:42;39.83;;;15.68;;
40669;SDS011;26355;45.528;9.234;2022-12-11T02:33:54;33.83;;;15.85;;
40669;SDS011;26355;45.528;9.234;2022-12-11T02:36:27;31.15;;;14.52;;
40669;SDS011;26355;45.528;9.234;2022-12-11T02:38:56;29.42;;;14.90;;
40669;SDS011;26355;45.528;9.234;2022-12-11T02:41:24;30.35;;;15.20;;
40669;SDS011;26355;45.528;9.234;2022-12-11T02:43:52;29.67;;;14.48;;
40669;SDS011;26355;45.528;9.234;2022-12-11T02:46:20;33.90;;;15.35;;
40669;SDS011;26355;45.528;9.234;2022-12-11T02:48:47;29.42;;;16.13;;
40669;SDS011;26355;45.528;9.234;2022-12-11T02:51:15;29.15;;;15.32;;
40669;SDS011;26355;45.528;9.234;2022-12-11T02:53:45;27.58;;;13.90;;
40669;SDS011;26355;45.528;9.234;2022-12-11T02:56:13;28.80;;;13.63;;
40669;SDS011;26355;45.528;9.234;2022-12-11T02:58:45;29.83;;;14.32;;
40669;SDS011;26355;45.528;9.234;2022-12-11T03:01:14;32.70;;;13.18;;
40669;SDS011;26355;45.528;9.234;2022-12-11T03:03:40;32.40;;;13.52;;
40669;SDS011;26355;45.528;9.234;2022-12-11T03:06:07;26.80;;;14.52;;
40669;SDS011;26355;45.528;9.234;2022-12-11T03:08:37;28.60;;;12.82;;
40669;SDS011;26355;45.528;9.234;2022-12-11T03:11:10;29.92;;;12.30;;
40669;SDS011;26355;45.528;9.234;2022-12-11T03:13:36;24.75;;;12.75;;
40669;SDS011;26355;45.528;9.234;2022-12-11T03:23:48;23.88;;;11.90;;
40669;SDS011;26355;45.528;9.234;2022-12-11T03:26:16;24.83;;;12.38;;
40669;SDS011;26355;45.528;9.234;2022-12-11T03:28:48;25.00;;;12.38;;
40669;SDS011;26355;45.528;9.234;2022-12-11T03:34:01;25.27;;;13.10;;
40669;SDS011;26355;45.528;9.234;2022-12-11T03:36:35;25.85;;;13.60;;
40669;SDS011;26355;45.528;9.234;2022-12-11T03:39:06;27.42;;;12.75;;
40669;SDS011;26355;45.528;9.234;2022-12-11T03:41:36;24.70;;;13.77;;
40669;SDS011;26355;45.528;9.234;2022-12-11T03:44:03;23.98;;;11.68;;
40669;SDS011;26355;45.528;9.234;2022-12-11T03:46:30;25.92;;;12.80;;
40669;SDS011;26355;45.528;9.234;2022-12-11T03:49:04;26.35;;;12.10;;
40669;SDS011;26355;45.528;9.234;2022-12-11T03:51:34;25.63;;;11.73;;
40669;SDS011;26355;45.528;9.234;2022-12-11T03:54:01;27.23;;;12.13;;
40669;SDS011;26355;45.528;9.234;2022-12-11T03:56:27;25.80;;;12.10;;
40669;SDS011;26355;45.528;9.234;2022-12-11T03:58:56;25.55;;;11.82;;
40669;SDS011;26355;45.528;9.234;2022-12-11T04:01:21;27.38;;;12.82;;
40669;SDS011;26355;45.528;9.234;2022-12-11T04:03:47;23.58;;;11.38;;
40669;SDS011;26355;45.528;9.234;2022-12-11T04:06:13;25.38;;;11.55;;
40669;SDS011;26355;45.528;9.234;2022-12-11T04:08:38;28.80;;;12.80;;
40669;SDS011;26355;45.528;9.234;2022-12-11T04:11:04;27.50;;;12.73;;
40669;SDS011;26355;45.528;9.234;2022-12-11T04:13:48;26.10;;;11.65;;
40669;SDS011;26355;45.528;9.234;2022-12-11T04:16:36;25.77;;;13.23;;
40669;SDS011;26355;45.528;9.234;2022-12-11T04:19:02;24.17;;;11.88;;
40669;SDS011;26355;45.528;9.234;2022-12-11T04:21:47;25.85;;;12.55;;
40669;SDS011;26355;45.528;9.234;2022-12-11T04:24:32;23.80;;;11.15;;
40669;SDS011;26355;45.528;9.234;2022-12-11T04:26:58;24.90;;;11.27;;
40669;SDS011;26355;45.528;9.234;2022-12-11T04:29:23;24.58;;;11.57;;
40669;SDS011;26355;45.528;9.234;2022-12-11T04:31:49;24.15;;;11.25;;
40669;SDS011;26355;45.528;9.234;2022-12-11T04:34:15;25.67;;;11.73;;
40669;SDS011;26355;45.528;9.234;2022-12-11T04:36:41;23.75;;;11.57;;
40669;SDS011;26355;45.528;9.234;2022-12-11T04:39:07;23.70;;;10.80;;
40669;SDS011;26355;45.528;9.234;2022-12-11T04:41:33;24.15;;;11.10;;
40669;SDS011;26355;45.528;9.234;2022-12-11T04:43:59;24.52;;;12.57;;
40669;SDS011;26355;45.528;9.234;2022-12-11T04:46:25;23.98;;;11.60;;
40669;SDS011;26355;45.528;9.234;2022-12-11T04:48:51;25.15;;;12.25;;
40669;SDS011;26355;45.528;9.234;2022-12-11T04:51:17;24.10;;;11.32;;
40669;SDS011;26355;45.528;9.234;2022-12-11T04:53:43;24.40;;;10.93;;
40669;SDS011;26355;45.528;9.234;2022-12-11T04:56:10;23.17;;;10.77;;
40669;SDS011;26355;45.528;9.234;2022-12-11T04:58:38;23.88;;;10.70;;
40669;SDS011;26355;45.528;9.234;2022-12-11T05:01:06;22.52;;;10.20;;
40669;SDS011;26355;45.528;9.234;2022-12-11T05:03:36;22.85;;;11.05;;
40669;SDS011;26355;45.528;9.234;2022-12-11T05:06:03;24.48;;;12.02;;
40669;SDS011;26355;45.528;9.234;2022-12-11T05:08:28;24.73;;;10.50;;
40669;SDS011;26355;45.528;9.234;2022-12-11T05:10:58;25.08;;;11.30;;
40669;SDS011;26355;45.528;9.234;2022-12-11T05:13:25;23.88;;;10.52;;
40669;SDS011;26355;45.528;9.234;2022-12-11T05:15:52;24.38;;;11.52;;
40669;SDS011;26355;45.528;9.234;2022-12-11T05:18:17;22.63;;;9.32;;
40669;SDS011;26355;45.528;9.234;2022-12-11T05:20:43;20.40;;;9.90;;
40669;SDS011;26355;45.528;9.234;2022-12-11T05:23:09;20.95;;;8.90;;
40669;SDS011;26355;45.528;9.234;2022-12-11T05:25:35;20.25;;;8.80;;
40669;SDS011;26355;45.528;9.234;2022-12-11T05:28:00;20.02;;;9.88;;
40669;SDS011;26355;45.528;9.234;2022-12-11T05:30:26;18.00;;;8.45;;
40669;SDS011;26355;45.528;9.234;2022-12-11T05:32:52;18.73;;;8.20;;
40669;SDS011;26355;45.528;9.234;2022-12-11T05:35:17;20.60;;;8.13;;
40669;SDS011;26355;45.528;9.234;2022-12-11T05:37:43;19.67;;;9.52;;
40669;SDS011;26355;45.528;9.234;2022-12-11T05:40:09;17.90;;;8.00;;
40669;SDS011;26355;45.528;9.234;2022-12-11T05:42:39;17.70;;;8.32;;
40669;SDS011;26355;45.528;9.234;2022-12-11T05:45:05;18.58;;;8.43;;
40669;SDS011;26355;45.528;9.234;2022-12-11T05:47:30;17.98;;;8.30;;
40669;SDS011;26355;45.528;9.234;2022-12-11T05:49:56;17.58;;;7.05;;
40669;SDS011;26355;45.528;9.234;2022-12-11T05:52:22;17.20;;;7.03;;
40669;SDS011;26355;45.528;9.234;2022-12-11T05:54:48;17.40;;;7.43;;
40669;SDS011;26355;45.528;9.234;2022-12-11T05:57:14;17.50;;;7.05;;
40669;SDS011;26355;45.528;9.234;2022-12-11T05:59:40;16.95;;;6.10;;
40669;SDS011;26355;45.528;9.234;2022-12-11T06:02:06;16.83;;;7.13;;
40669;SDS011;26355;45.528;9.234;2022-12-11T06:04:32;16.50;;;6.85;;
40669;SDS011;26355;45.528;9.234;2022-12-11T06:06:57;14.55;;;6.20;;
40669;SDS011;26355;45.528;9.234;2022-12-11T06:09:23;14.23;;;5.45;;
40669;SDS011;26355;45.528;9.234;2022-12-11T06:11:49;14.23;;;5.50;;
40669;SDS011;26355;45.528;9.234;2022-12-11T06:14:14;15.20;;;5.13;;
40669;SDS011;26355;45.528;9.234;2022-12-11T06:16:40;15.15;;;5.55;;
40669;SDS011;26355;45.528;9.234;2022-12-11T06:19:06;13.23;;;4.78;;
40669;SDS011;26355;45.528;9.234;2022-12-11T06:21:32;15.00;;;5.10;;
40669;SDS011;26355;45.528;9.234;2022-12-11T06:23:58;13.63;;;4.65;;
40669;SDS011;26355;45.528;9.234;2022-12-11T06:26:26;15.07;;;4.90;;
40669;SDS011;26355;45.528;9.234;2022-12-11T06:28:52;13.68;;;4.22;;
40669;SDS011;26355;45.528;9.234;2022-12-11T06:31:18;11.18;;;3.88;;
40669;SDS011;26355;45.528;9.234;2022-12-11T06:33:44;10.70;;;3.63;;
40669;SDS011;26355;45.528;9.234;2022-12-11T06:36:17;9.75;;;3.55;;
40669;SDS011;26355;45.528;9.234;2022-12-11T06:38:44;11.20;;;3.45;;
40669;SDS011;26355;45.528;9.234;2022-12-11T06:41:10;9.98;;;2.88;;
40669;SDS011;26355;45.528;9.234;2022-12-11T06:43:37;9.30;;;3.03;;
40669;SDS011;26355;45.528;9.234;2022-12-11T06:46:08;6.65;;;2.80;;
40669;SDS011;26355;45.528;9.234;2022-12-11T06:48:35;8.70;;;3.22;;
40669;SDS011;26355;45.528;9.234;2022-12-11T06:51:05;10.38;;;3.05;;
40669;SDS011;26355;45.528;9.234;2022-12-11T06:53:31;8.60;;;3.45;;
40669;SDS011;26355;45.528;9.234;2022-12-11T06:56:00;8.68;;;3.05;;
40669;SDS011;26355;45.528;9.234;2022-12-11T06:58:30;11.80;;;3.20;;
40669;SDS011;26355;45.528;9.234;2022-12-11T07:00:57;8.63;;;2.88;;
40669;SDS011;26355;45.528;9.234;2022-12-11T07:03:23;12.35;;;3.30;;
40669;SDS011;26355;45.528;9.234;2022-12-11T07:05:48;8.85;;;2.70;;
40669;SDS011;26355;45.528;9.234;2022-12-11T07:08:15;8.48;;;2.83;;
40669;SDS011;26355;45.528;9.234;2022-12-11T07:10:40;12.10;;;3.20;;
40669;SDS011;26355;45.528;9.234;2022-12-11T07:13:06;10.60;;;3.05;;
40669;SDS011;26355;45.528;9.234;2022-12-11T07:15:31;8.00;;;2.88;;
40669;SDS011;26355;45.528;9.234;2022-12-11T07:17:57;10.15;;;2.53;;
40669;SDS011;26355;45.528;9.234;2022-12-11T07:20:23;5.38;;;2.20;;
40669;SDS011;26355;45.528;9.234;2022-12-11T07:22:49;6.07;;;2.30;;
40669;SDS011;26355;45.528;9.234;2022-12-11T07:25:14;7.85;;;2.70;;
40669;SDS011;26355;45.528;9.234;2022-12-11T07:27:40;7.68;;;2.28;;
40669;SDS011;26355;45.528;9.234;2022-12-11T07:30:06;8.60;;;2.60;;
40669;SDS011;26355;45.528;9.234;2022-12-11T07:32:33;8.53;;;2.80;;
40669;SDS011;26355;45.528;9.234;2022-12-11T07:34:58;6.18;;;2.42;;
40669;SDS011;26355;45.528;9.234;2022-12-11T07:37:24;8.18;;;2.50;;
40669;SDS011;26355;45.528;9.234;2022-12-11T07:39:50;7.10;;;2.42;;
40669;SDS011;26355;45.528;9.234;2022-12-11T07:42:15;6.22;;;2.22;;
40669;SDS011;26355;45.528;9.234;2022-12-11T07:44:41;5.10;;;2.30;;
40669;SDS011;26355;45.528;9.234;2022-12-11T07:47:06;7.47;;;2.30;;
40669;SDS011;26355;45.528;9.234;2022-12-11T07:49:32;5.80;;;2.20;;
40669;SDS011;26355;45.528;9.234;2022-12-11T07:51:58;9.50;;;3.15;;
40669;SDS011;26355;45.528;9.234;2022-12-11T07:54:23;6.40;;;2.50;;
40669;SDS011;26355;45.528;9.234;2022-12-11T07:56:49;7.95;;;2.70;;
40669;SDS011;26355;45.528;9.234;2022-12-11T07:59:14;5.82;;;2.38;;
40669;SDS011;26355;45.528;9.234;2022-12-11T08:01:41;7.43;;;2.50;;
40669;SDS011;26355;45.528;9.234;2022-12-11T08:04:07;7.63;;;2.53;;
40669;SDS011;26355;45.528;9.234;2022-12-11T08:06:35;8.93;;;2.85;;
40669;SDS011;26355;45.528;9.234;2022-12-11T08:09:04;6.63;;;2.50;;
40669;SDS011;26355;45.528;9.234;2022-12-11T08:11:31;8.02;;;2.40;;
40669;SDS011;26355;45.528;9.234;2022-12-11T08:13:59;9.15;;;3.33;;
40669;SDS011;26355;45.528;9.234;2022-12-11T08:18:50;11.80;;;4.15;;
40669;SDS011;26355;45.528;9.234;2022-12-11T08:21:17;14.85;;;4.80;;
40669;SDS011;26355;45.528;9.234;2022-12-11T08:23:45;14.40;;;5.07;;
40669;SDS011;26355;45.528;9.234;2022-12-11T08:26:14;16.98;;;5.82;;
40669;SDS011;26355;45.528;9.234;2022-12-11T08:28:42;16.55;;;5.95;;
40669;SDS011;26355;45.528;9.234;2022-12-11T08:31:08;15.45;;;6.28;;
40669;SDS011;26355;45.528;9.234;2022-12-11T08:33:35;16.83;;;5.63;;
40669;SDS011;26355;45.528;9.234;2022-12-11T08:36:02;17.70;;;6.10;;
40669;SDS011;26355;45.528;9.234;2022-12-11T08:38:29;17.92;;;7.05;;
40669;SDS011;26355;45.528;9.234;2022-12-11T08:40:55;16.85;;;6.20;;
40669;SDS011;26355;45.528;9.234;2022-12-11T08:43:21;15.65;;;5.93;;
40669;SDS011;26355;45.528;9.234;2022-12-11T08:45:46;15.73;;;6.65;;
40669;SDS011;26355;45.528;9.234;2022-12-11T08:48:12;18.52;;;6.22;;
40669;SDS011;26355;45.528;9.234;2022-12-11T08:50:37;16.58;;;6.22;;
40669;SDS011;26355;45.528;9.234;2022-12-11T08:53:03;14.52;;;5.47;;
40669;SDS011;26355;45.528;9.234;2022-12-11T08:55:28;16.30;;;5.75;;
40669;SDS011;26355;45.528;9.234;2022-12-11T08:57:56;14.98;;;6.20;;
40669;SDS011;26355;45.528;9.234;2022-12-11T09:00:21;16.55;;;6.50;;
40669;SDS011;26355;45.528;9.234;2022-12-11T09:02:47;14.15;;;5.82;;
40669;SDS011;26355;45.528;9.234;2022-12-11T09:08:35;17.80;;;6.47;;
40669;SDS011;26355;45.528;9.234;2022-12-11T09:11:14;15.23;;;5.50;;
40669;SDS011;26355;45.528;9.234;2022-12-11T09:13:42;13.70;;;5.18;;
40669;SDS011;26355;45.528;9.234;2022-12-11T09:16:09;13.75;;;4.68;;
40669;SDS011;26355;45.528;9.234;2022-12-11T09:18:37;11.48;;;3.90;;
40669;SDS011;26355;45.528;9.234;2022-12-11T09:21:07;11.88;;;3.97;;
40669;SDS011;26355;45.528;9.234;2022-12-11T09:23:35;12.23;;;4.53;;
40669;SDS011;26355;45.528;9.234;2022-12-11T09:26:05;12.02;;;3.72;;
40669;SDS011;26355;45.528;9.234;2022-12-11T09:28:35;12.65;;;4.45;;
40669;SDS011;26355;45.528;9.234;2022-12-11T09:31:01;16.75;;;4.63;;
40669;SDS011;26355;45.528;9.234;2022-12-11T09:33:32;13.52;;;4.20;;
40669;SDS011;26355;45.528;9.234;2022-12-11T09:35:58;13.30;;;4.47;;
40669;SDS011;26355;45.528;9.234;2022-12-11T09:38:24;11.80;;;4.33;;
40669;SDS011;26355;45.528;9.234;2022-12-11T09:40:50;11.85;;;4.28;;
40669;SDS011;26355;45.528;9.234;2022-12-11T09:46:09;18.02;;;7.07;;
40669;SDS011;26355;45.528;9.234;2022-12-11T09:48:37;18.33;;;8.35;;
40669;SDS011;26355;45.528;9.234;2022-12-11T09:51:09;19.48;;;8.63;;
40669;SDS011;26355;45.528;9.234;2022-12-11T09:53:42;17.20;;;7.32;;
40669;SDS011;26355;45.528;9.234;2022-12-11T09:56:21;17.58;;;7.47;;
40669;SDS011;26355;45.528;9.234;2022-12-11T10:01:48;23.40;;;8.25;;
40669;SDS011;26355;45.528;9.234;2022-12-11T10:15:49;20.65;;;8.23;;
40669;SDS011;26355;45.528;9.234;2022-12-11T10:18:17;18.90;;;8.32;;
40669;SDS011;26355;45.528;9.234;2022-12-11T10:20:47;18.13;;;8.50;;
40669;SDS011;26355;45.528;9.234;2022-12-11T10:23:19;19.20;;;8.80;;
40669;SDS011;26355;45.528;9.234;2022-12-11T10:25:50;18.63;;;7.90;;
40669;SDS011;26355;45.528;9.234;2022-12-11T10:28:20;19.42;;;8.43;;
40669;SDS011;26355;45.528;9.234;2022-12-11T10:30:47;19.23;;;8.60;;
40669;SDS011;26355;45.528;9.234;2022-12-11T10:38:41;20.17;;;7.95;;
40669;SDS011;26355;45.528;9.234;2022-12-11T10:41:12;19.13;;;8.70;;
40669;SDS011;26355;45.528;9.234;2022-12-11T10:43:42;19.30;;;8.30;;
40669;SDS011;26355;45.528;9.234;2022-12-11T10:46:14;18.63;;;7.95;;
40669;SDS011;26355;45.528;9.234;2022-12-11T10:49:00;18.08;;;8.95;;
40669;SDS011;26355;45.528;9.234;2022-12-11T10:53:54;19.05;;;8.18;;
40669;SDS011;26355;45.528;9.234;2022-12-11T10:56:27;19.50;;;7.78;;
40669;SDS011;26355;45.528;9.234;2022-12-11T10:58:55;18.45;;;8.15;;
40669;SDS011;26355;45.528;9.234;2022-12-11T11:01:22;17.95;;;7.63;;
40669;SDS011;26355;45.528;9.234;2022-12-11T11:06:18;17.88;;;7.80;;
40669;SDS011;26355;45.528;9.234;2022-12-11T11:08:46;18.38;;;7.75;;
40669;SDS011;26355;45.528;9.234;2022-12-11T11:11:19;17.55;;;7.32;;
40669;SDS011;26355;45.528;9.234;2022-12-11T11:13:49;16.80;;;7.95;;
40669;SDS011;26355;45.528;9.234;2022-12-11T11:16:16;16.00;;;6.95;;
40669;SDS011;26355;45.528;9.234;2022-12-11T11:18:51;17.67;;;8.05;;
40669;SDS011;26355;45.528;9.234;2022-12-11T11:21:19;16.80;;;7.90;;
40669;SDS011;26355;45.528;9.234;2022-12-11T11:23:47;16.70;;;7.13;;
40669;SDS011;26355;45.528;9.234;2022-12-11T11:26:12;17.73;;;8.10;;
40669;SDS011;26355;45.528;9.234;2022-12-11T11:28:39;16.85;;;7.88;;
40669;SDS011;26355;45.528;9.234;2022-12-11T11:31:11;17.17;;;7.40;;
40669;SDS011;26355;45.528;9.234;2022-12-11T11:36:19;17.40;;;7.75;;
40669;SDS011;26355;45.528;9.234;2022-12-11T11:44:29;16.10;;;6.68;;
40669;SDS011;26355;45.528;9.234;2022-12-11T11:47:01;15.25;;;6.22;;
40669;SDS011;26355;45.528;9.234;2022-12-11T11:49:44;15.05;;;5.80;;
40669;SDS011;26355;45.528;9.234;2022-12-11T11:55:02;16.52;;;6.60;;
40669;SDS011;26355;45.528;9.234;2022-12-11T12:00:27;15.90;;;6.63;;
40669;SDS011;26355;45.528;9.234;2022-12-11T12:05:26;14.32;;;5.35;;
40669;SDS011;26355;45.528;9.234;2022-12-11T12:08:33;14.90;;;6.03;;
40669;SDS011;26355;45.528;9.234;2022-12-11T12:11:21;15.00;;;5.43;;
40669;SDS011;26355;45.528;9.234;2022-12-11T12:25:09;17.17;;;6.15;;
40669;SDS011;26355;45.528;9.234;2022-12-11T12:30:39;15.73;;;6.10;;
40669;SDS011;26355;45.528;9.234;2022-12-11T12:33:13;15.75;;;6.07;;
40669;SDS011;26355;45.528;9.234;2022-12-11T12:35:55;16.85;;;6.65;;
40669;SDS011;26355;45.528;9.234;2022-12-11T12:38:36;16.88;;;6.68;;
40669;SDS011;26355;45.528;9.234;2022-12-11T12:49:42;16.05;;;6.78;;
40669;SDS011;26355;45.528;9.234;2022-12-11T12:52:17;17.10;;;6.03;;
40669;SDS011;26355;45.528;9.234;2022-12-11T12:54:51;13.07;;;5.53;;
40669;SDS011;26355;45.528;9.234;2022-12-11T12:57:41;15.50;;;6.10;;
40669;SDS011;26355;45.528;9.234;2022-12-11T13:00:09;14.63;;;5.22;;
40669;SDS011;26355;45.528;9.234;2022-12-11T13:02:36;14.43;;;5.10;;
40669;SDS011;26355;45.528;9.234;2022-12-11T13:05:20;15.18;;;5.18;;
40669;SDS011;26355;45.528;9.234;2022-12-11T13:07:58;13.55;;;5.40;;
40669;SDS011;26355;45.528;9.234;2022-12-11T13:10:33;15.13;;;5.63;;
40669;SDS011;26355;45.528;9.234;2022-12-11T13:13:02;14.38;;;4.82;;
40669;SDS011;26355;45.528;9.234;2022-12-11T13:18:28;14.00;;;5.63;;
40669;SDS011;26355;45.528;9.234;2022-12-11T13:21:01;14.43;;;5.60;;
40669;SDS011;26355;45.528;9.234;2022-12-11T13:23:47;15.15;;;5.97;;
40669;SDS011;26355;45.528;9.234;2022-12-11T13:26:12;14.65;;;5.53;;
40669;SDS011;26355;45.528;9.234;2022-12-11T13:33:40;15.10;;;4.95;;
40669;SDS011;26355;45.528;9.234;2022-12-11T13:36:22;15.07;;;5.57;;
40669;SDS011;26355;45.528;9.234;2022-12-11T13:39:05;13.93;;;5.00;;
40669;SDS011;26355;45.528;9.234;2022-12-11T13:46:04;15.60;;;5.30;;
40669;SDS011;26355;45.528;9.234;2022-12-11T13:51:23;13.68;;;5.05;;
40669;SDS011;26355;45.528;9.234;2022-12-11T13:56:39;15.02;;;5.63;;
40669;SDS011;26355;45.528;9.234;2022-12-11T13:59:17;15.02;;;5.88;;
40669;SDS011;26355;45.528;9.234;2022-12-11T14:01:47;15.13;;;5.93;;
40669;SDS011;26355;45.528;9.234;2022-12-11T14:04:14;15.70;;;6.00;;
40669;SDS011;26355;45.528;9.234;2022-12-11T14:06:43;16.27;;;6.07;;
40669;SDS011;26355;45.528;9.234;2022-12-11T14:09:13;15.70;;;6.03;;
40669;SDS011;26355;45.528;9.234;2022-12-11T14:11:42;17.27;;;6.45;;
40669;SDS011;26355;45.528;9.234;2022-12-11T14:14:23;18.92;;;6.20;;
40669;SDS011;26355;45.528;9.234;2022-12-11T14:16:58;16.15;;;6.43;;
40669;SDS011;26355;45.528;9.234;2022-12-11T14:19:24;16.73;;;6.20;;
40669;SDS011;26355;45.528;9.234;2022-12-11T14:22:04;16.00;;;6.13;;
40669;SDS011;26355;45.528;9.234;2022-12-11T14:24:31;14.55;;;5.60;;
40669;SDS011;26355;45.528;9.234;2022-12-11T14:26:57;16.70;;;6.55;;
40669;SDS011;26355;45.528;9.234;2022-12-11T14:29:25;16.50;;;6.38;;
40669;SDS011;26355;45.528;9.234;2022-12-11T14:31:53;16.65;;;6.30;;
40669;SDS011;26355;45.528;9.234;2022-12-11T14:34:42;15.73;;;6.38;;
40669;SDS011;26355;45.528;9.234;2022-12-11T14:37:08;19.48;;;6.90;;
40669;SDS011;26355;45.528;9.234;2022-12-11T14:44:52;16.88;;;6.47;;
40669;SDS011;26355;45.528;9.234;2022-12-11T14:47:22;16.70;;;6.47;;
40669;SDS011;26355;45.528;9.234;2022-12-11T14:49:55;14.80;;;5.90;;
40669;SDS011;26355;45.528;9.234;2022-12-11T14:52:34;17.40;;;6.70;;
40669;SDS011;26355;45.528;9.234;2022-12-11T14:57:48;15.27;;;6.03;;
40669;SDS011;26355;45.528;9.234;2022-12-11T15:00:21;17.45;;;7.95;;
40669;SDS011;26355;45.528;9.234;2022-12-11T15:03:01;15.15;;;6.30;;
40669;SDS011;26355;45.528;9.234;2022-12-11T15:05:27;15.35;;;5.97;;
40669;SDS011;26355;45.528;9.234;2022-12-11T15:07:57;17.35;;;6.75;;
40669;SDS011;26355;45.528;9.234;2022-12-11T15:10:33;14.52;;;5.90;;
40669;SDS011;26355;45.528;9.234;2022-12-11T15:13:02;16.77;;;7.03;;
40669;SDS011;26355;45.528;9.234;2022-12-11T15:15:30;15.18;;;6.28;;
40669;SDS011;26355;45.528;9.234;2022-12-11T15:18:01;16.45;;;6.28;;
40669;SDS011;26355;45.528;9.234;2022-12-11T15:20:36;15.88;;;5.82;;
40669;SDS011;26355;45.528;9.234;2022-12-11T15:23:02;15.23;;;6.32;;
40669;SDS011;26355;45.528;9.234;2022-12-11T15:25:31;14.90;;;6.00;;
40669;SDS011;26355;45.528;9.234;2022-12-11T15:27:57;16.30;;;6.30;;
40669;SDS011;26355;45.528;9.234;2022-12-11T15:35:29;16.40;;;6.00;;
40669;SDS011;26355;45.528;9.234;2022-12-11T15:37:56;16.65;;;6.63;;
40669;SDS011;26355;45.528;9.234;2022-12-11T15:40:22;17.50;;;6.75;;
40669;SDS011;26355;45.528;9.234;2022-12-11T15:42:48;14.65;;;6.68;;
40669;SDS011;26355;45.528;9.234;2022-12-11T15:45:19;17.27;;;6.15;;
40669;SDS011;26355;45.528;9.234;2022-12-11T15:47:48;16.00;;;6.60;;
40669;SDS011;26355;45.528;9.234;2022-12-11T15:52:44;17.00;;;7.05;;
40669;SDS011;26355;45.528;9.234;2022-12-11T15:55:10;16.05;;;6.78;;
40669;SDS011;26355;45.528;9.234;2022-12-11T15:57:36;17.17;;;7.28;;
40669;SDS011;26355;45.528;9.234;2022-12-11T16:00:07;16.85;;;6.85;;
40669;SDS011;26355;45.528;9.234;2022-12-11T16:02:35;16.80;;;6.75;;
40669;SDS011;26355;45.528;9.234;2022-12-11T16:05:01;18.75;;;7.38;;
40669;SDS011;26355;45.528;9.234;2022-12-11T16:07:27;15.63;;;6.55;;
40669;SDS011;26355;45.528;9.234;2022-12-11T16:09:52;18.00;;;7.32;;
40669;SDS011;26355;45.528;9.234;2022-12-11T16:12:18;18.15;;;7.18;;
40669;SDS011;26355;45.528;9.234;2022-12-11T16:14:44;17.02;;;7.28;;
40669;SDS011;26355;45.528;9.234;2022-12-11T16:17:10;17.65;;;7.55;;
40669;SDS011;26355;45.528;9.234;2022-12-11T16:19:37;16.70;;;7.22;;
40669;SDS011;26355;45.528;9.234;2022-12-11T16:22:04;16.48;;;7.07;;
40669;SDS011;26355;45.528;9.234;2022-12-11T16:24:31;19.95;;;8.30;;
40669;SDS011;26355;45.528;9.234;2022-12-11T16:26:57;17.87;;;7.10;;
40669;SDS011;26355;45.528;9.234;2022-12-11T16:29:22;18.77;;;8.20;;
40669;SDS011;26355;45.528;9.234;2022-12-11T16:31:54;16.77;;;7.80;;
40669;SDS011;26355;45.528;9.234;2022-12-11T16:34:24;16.33;;;7.75;;
40669;SDS011;26355;45.528;9.234;2022-12-11T16:36:51;17.48;;;7.35;;
40669;SDS011;26355;45.528;9.234;2022-12-11T16:39:18;21.70;;;8.52;;
40669;SDS011;26355;45.528;9.234;2022-12-11T16:41:44;17.02;;;7.40;;
40669;SDS011;26355;45.528;9.234;2022-12-11T16:44:09;17.48;;;7.45;;
40669;SDS011;26355;45.528;9.234;2022-12-11T16:46:35;17.48;;;8.30;;
40669;SDS011;26355;45.528;9.234;2022-12-11T16:49:01;19.35;;;8.52;;
40669;SDS011;26355;45.528;9.234;2022-12-11T16:51:28;17.83;;;7.63;;
40669;SDS011;26355;45.528;9.234;2022-12-11T16:53:53;18.15;;;8.52;;
40669;SDS011;26355;45.528;9.234;2022-12-11T16:56:19;19.63;;;8.90;;